createdAt,value
2022-07-27T00:02:31.676Z,22.20
2022-07-27T00:05:17.824Z,20.30
2022-07-27T00:08:03.607Z,20.30
2022-07-27T00:10:50.131Z,20.20
2022-07-27T00:13:35.649Z,20.60
2022-07-27T00:16:21.421Z,20.70
2022-07-27T00:19:08.971Z,20.90
2022-07-27T00:21:55.555Z,21.10
2022-07-27T00:24:43.238Z,21.10
2022-07-27T00:27:29.141Z,21.20
2022-07-27T00:30:14.941Z,21.50
2022-07-27T00:33:00.969Z,21.80
2022-07-27T00:35:46.614Z,22.10
2022-07-27T00:38:32.675Z,22.40
2022-07-27T00:41:18.501Z,22.50
2022-07-27T00:44:06.757Z,22.70
2022-07-27T00:46:53.198Z,22.80
2022-07-27T00:49:38.808Z,22.60
2022-07-27T00:52:25.117Z,22.50
2022-07-27T00:55:10.732Z,22.40
2022-07-27T00:57:59.296Z,22.20
2022-07-27T01:00:47.093Z,21.90
2022-07-27T01:03:32.458Z,21.90
2022-07-27T01:06:27.012Z,21.90
2022-07-27T01:09:31.627Z,22.40
2022-07-27T01:12:20.842Z,22.20
2022-07-27T01:15:08.000Z,22.40
2022-07-27T01:17:53.682Z,22.80
2022-07-27T01:20:43.057Z,22.50
2022-07-27T01:23:32.404Z,22.10
2022-07-27T01:26:21.127Z,21.90
2022-07-27T01:29:08.045Z,22.00
2022-07-27T01:31:54.082Z,22.10
2022-07-27T01:34:39.903Z,22.30
2022-07-27T01:37:25.646Z,22.30
2022-07-27T01:40:11.989Z,22.30
2022-07-27T01:42:57.812Z,22.40
2022-07-27T01:45:43.725Z,22.40
2022-07-27T01:48:29.689Z,22.50
2022-07-27T01:51:15.566Z,22.70
2022-07-27T01:54:01.859Z,22.60
2022-07-27T01:56:47.592Z,22.50
2022-07-27T01:59:34.073Z,22.40
2022-07-27T02:02:20.118Z,22.50
2022-07-27T02:05:07.119Z,22.80
2022-07-27T02:07:52.987Z,22.90
2022-07-27T02:10:59.253Z,22.90
2022-07-27T02:13:47.400Z,22.90
2022-07-27T02:16:33.136Z,22.80
2022-07-27T02:19:19.613Z,22.80
2022-07-27T02:22:05.296Z,22.70
2022-07-27T02:24:50.761Z,22.70
2022-07-27T02:27:36.451Z,22.60
2022-07-27T02:30:22.243Z,22.70
2022-07-27T02:33:08.992Z,22.60
2022-07-27T02:35:54.678Z,22.80
2022-07-27T02:38:40.291Z,23.00
2022-07-27T02:41:26.146Z,23.00
2022-07-27T02:44:14.518Z,23.00
2022-07-27T02:47:00.284Z,22.90
2022-07-27T02:49:46.288Z,22.90
2022-07-27T02:52:31.537Z,22.80
2022-07-27T02:55:17.315Z,23.00
2022-07-27T02:58:03.206Z,23.10
2022-07-27T03:00:48.866Z,23.00
2022-07-27T03:03:37.313Z,23.00
2022-07-27T03:06:22.956Z,23.10
2022-07-27T03:09:10.568Z,23.10
2022-07-27T03:11:56.048Z,23.30
2022-07-27T03:14:42.477Z,23.70
2022-07-27T03:17:28.095Z,24.00
2022-07-27T03:20:13.827Z,24.20
2022-07-27T03:22:59.342Z,24.20
2022-07-27T03:25:44.858Z,24.30
2022-07-27T03:28:30.564Z,24.40
2022-07-27T03:31:17.671Z,24.10
2022-07-27T03:34:03.338Z,24.10
2022-07-27T03:36:49.655Z,24.20
2022-07-27T03:39:35.449Z,24.30
2022-07-27T03:42:21.057Z,23.90
2022-07-27T03:45:07.432Z,23.40
2022-07-27T03:47:53.205Z,23.30
2022-07-27T03:50:39.298Z,23.40
2022-07-27T03:53:25.362Z,23.10
2022-07-27T03:56:11.211Z,22.30
2022-07-27T03:58:56.756Z,22.10
2022-07-27T04:01:42.668Z,22.50
2022-07-27T04:04:28.119Z,22.70
2022-07-27T04:07:13.667Z,22.80
2022-07-27T04:09:59.157Z,22.70
2022-07-27T04:12:44.780Z,22.50
2022-07-27T04:15:32.818Z,22.90
2022-07-27T04:18:18.386Z,23.00
2022-07-27T04:21:06.340Z,22.90
2022-07-27T04:23:53.725Z,22.70
2022-07-27T04:26:39.951Z,22.70
2022-07-27T04:29:25.739Z,22.50
2022-07-27T04:32:11.342Z,22.40
2022-07-27T04:34:57.098Z,22.70
2022-07-27T04:37:58.228Z,22.60
2022-07-27T04:40:45.218Z,22.70
2022-07-27T04:43:31.114Z,23.00
2022-07-27T04:46:17.139Z,22.90
2022-07-27T04:49:02.786Z,22.90
2022-07-27T04:51:48.310Z,22.70
2022-07-27T04:54:33.906Z,22.60
2022-07-27T04:57:20.966Z,22.90
2022-07-27T05:00:07.972Z,23.20
2022-07-27T05:02:53.805Z,23.00
2022-07-27T05:05:49.970Z,22.80
2022-07-27T05:08:36.178Z,22.60
2022-07-27T05:11:22.023Z,22.50
2022-07-27T05:14:07.890Z,22.40
2022-07-27T05:16:53.734Z,22.50
2022-07-27T05:19:40.417Z,23.10
2022-07-27T05:22:26.690Z,23.50
2022-07-27T05:25:12.906Z,23.60
2022-07-27T05:27:58.589Z,23.50
2022-07-27T05:30:43.969Z,23.40
2022-07-27T05:33:29.666Z,23.80
2022-07-27T05:36:15.267Z,24.10
2022-07-27T05:39:01.646Z,23.90
2022-07-27T05:41:47.465Z,24.30
2022-07-27T05:44:36.161Z,24.80
2022-07-27T05:47:21.810Z,24.80
2022-07-27T05:50:08.007Z,24.60
2022-07-27T05:52:53.480Z,24.50
2022-07-27T05:55:39.078Z,24.50
2022-07-27T05:58:43.980Z,24.60
2022-07-27T06:01:30.159Z,24.00
2022-07-27T06:04:15.802Z,24.20
2022-07-27T06:07:19.768Z,24.60
2022-07-27T06:10:08.829Z,24.70
2022-07-27T06:12:54.642Z,24.60
2022-07-27T06:15:40.670Z,24.80
2022-07-27T06:18:26.553Z,24.90
2022-07-27T06:21:12.084Z,25.20
2022-07-27T06:23:58.072Z,25.20
2022-07-27T06:26:44.274Z,25.40
2022-07-27T06:29:30.999Z,25.40
2022-07-27T06:32:16.901Z,25.30
2022-07-27T06:35:06.535Z,25.40
2022-07-27T06:37:53.066Z,25.60
2022-07-27T06:40:40.111Z,25.90
2022-07-27T06:43:28.735Z,26.10
2022-07-27T06:46:14.470Z,26.20
2022-07-27T06:49:00.331Z,26.40
2022-07-27T06:51:46.276Z,26.70
2022-07-27T06:54:32.059Z,26.80
2022-07-27T06:57:18.062Z,27.10
2022-07-27T07:00:05.425Z,27.20
2022-07-27T07:02:57.258Z,27.30
2022-07-27T07:05:47.510Z,27.30
2022-07-27T07:08:33.204Z,27.50
2022-07-27T07:11:18.981Z,27.90
2022-07-27T07:14:04.858Z,28.20
2022-07-27T07:16:50.834Z,28.20
2022-07-27T07:19:37.506Z,28.50
2022-07-27T07:22:23.263Z,28.50
2022-07-27T07:25:09.412Z,28.50
2022-07-27T07:27:55.610Z,28.70
2022-07-27T07:30:41.240Z,28.80
2022-07-27T07:33:30.437Z,28.60
2022-07-27T07:36:16.821Z,28.70
2022-07-27T07:39:03.363Z,28.80
2022-07-27T07:41:49.111Z,28.60
2022-07-27T07:44:34.754Z,28.90
2022-07-27T07:47:20.665Z,28.90
2022-07-27T07:50:06.823Z,28.30
2022-07-27T07:52:54.105Z,26.40
2022-07-27T07:55:39.797Z,28.60
2022-07-27T07:58:27.229Z,28.80
2022-07-27T08:01:13.281Z,28.90
2022-07-27T08:03:59.080Z,28.80
2022-07-27T08:06:45.648Z,28.50
2022-07-27T08:09:31.783Z,27.60
2022-07-27T08:12:17.839Z,28.20
2022-07-27T08:15:04.701Z,28.30
2022-07-27T08:17:50.713Z,28.20
2022-07-27T08:20:36.622Z,29.00
2022-07-27T08:23:22.434Z,29.10
2022-07-27T08:26:08.450Z,29.30
2022-07-27T08:28:54.077Z,29.50
2022-07-27T08:31:52.436Z,29.40
2022-07-27T08:34:38.780Z,28.90
2022-07-27T08:37:24.681Z,28.60
2022-07-27T08:43:23.747Z,27.70
2022-07-27T08:46:11.764Z,28.70
2022-07-27T08:48:57.458Z,29.30
2022-07-27T08:51:47.351Z,29.70
2022-07-27T08:54:33.547Z,29.40
2022-07-27T08:57:19.502Z,29.60
2022-07-27T09:00:06.627Z,28.70
2022-07-27T09:02:52.672Z,29.30
2022-07-27T09:05:54.500Z,30.50
2022-07-27T09:08:41.978Z,31.40
2022-07-27T09:11:28.000Z,32.70
2022-07-27T09:14:16.103Z,32.40
2022-07-27T09:20:30.078Z,34.40
2022-07-27T09:23:27.229Z,32.40
2022-07-27T09:26:34.254Z,32.40
2022-07-27T09:29:20.290Z,30.90
2022-07-27T09:32:17.690Z,32.00
2022-07-27T09:35:17.726Z,32.10
2022-07-27T09:38:24.364Z,32.60
2022-07-27T09:41:13.367Z,34.10
2022-07-27T09:47:26.538Z,32.00
2022-07-27T09:50:19.967Z,31.20
2022-07-27T09:53:41.845Z,31.80
2022-07-27T09:56:32.829Z,32.60
2022-07-27T09:59:19.402Z,33.00
2022-07-27T10:02:05.882Z,33.60
2022-07-27T10:04:51.540Z,32.20
2022-07-27T10:07:38.727Z,32.00
2022-07-27T10:10:24.891Z,32.50
2022-07-27T10:13:10.917Z,33.60
2022-07-27T10:15:57.697Z,33.80
2022-07-27T10:19:07.968Z,33.10
2022-07-27T10:21:54.444Z,34.00
2022-07-27T10:24:40.326Z,33.30
2022-07-27T10:27:28.210Z,33.10
2022-07-27T10:30:27.836Z,34.20
2022-07-27T10:33:38.013Z,34.60
2022-07-27T10:36:24.109Z,35.20
2022-07-27T10:39:10.055Z,32.10
2022-07-27T10:42:23.413Z,32.50
2022-07-27T10:45:15.054Z,35.70
2022-07-27T10:48:01.943Z,33.10
2022-07-27T10:50:48.548Z,32.00
2022-07-27T10:53:55.375Z,32.90
2022-07-27T10:56:46.083Z,36.10
2022-07-27T11:00:07.599Z,36.20
2022-07-27T11:02:48.163Z,35.00
2022-07-27T11:08:47.409Z,33.10
2022-07-27T11:11:36.633Z,36.40
2022-07-27T11:14:30.977Z,34.90
2022-07-27T11:20:30.043Z,32.40
2022-07-27T11:23:50.498Z,33.70
2022-07-27T11:26:28.838Z,35.20
2022-07-27T11:29:16.595Z,32.40
2022-07-27T11:32:03.453Z,34.10
2022-07-27T11:34:50.187Z,34.50
2022-07-27T11:37:36.097Z,33.00
2022-07-27T11:40:59.961Z,33.40
2022-07-27T11:43:45.524Z,33.30
2022-07-27T11:46:33.938Z,35.20
2022-07-27T11:49:31.285Z,35.80
2022-07-27T11:52:18.080Z,35.20
2022-07-27T11:55:04.256Z,36.90
2022-07-27T11:57:50.432Z,34.80
2022-07-27T12:00:44.958Z,34.50
2022-07-27T12:03:46.099Z,34.20
2022-07-27T12:06:34.539Z,35.00
2022-07-27T12:09:21.550Z,34.30
2022-07-27T12:12:16.240Z,33.80
2022-07-27T12:15:44.276Z,32.60
2022-07-27T12:18:22.030Z,33.70
2022-07-27T12:21:18.489Z,36.80
2022-07-27T12:24:04.188Z,38.30
2022-07-27T12:27:06.841Z,37.40
2022-07-27T12:29:59.508Z,37.90
2022-07-27T12:32:45.996Z,36.70
2022-07-27T12:35:46.060Z,37.90
2022-07-27T12:38:49.021Z,39.60
2022-07-27T12:41:37.756Z,36.90
2022-07-27T12:44:32.606Z,36.40
2022-07-27T12:47:39.963Z,35.70
2022-07-27T12:50:29.009Z,36.60
2022-07-27T12:53:16.719Z,36.30
2022-07-27T12:56:06.848Z,37.00
2022-07-27T12:59:03.781Z,35.00
2022-07-27T13:01:51.319Z,35.60
2022-07-27T13:04:37.036Z,34.40
2022-07-27T13:07:22.843Z,33.00
2022-07-27T13:10:10.736Z,33.30
2022-07-27T13:12:56.684Z,33.10
2022-07-27T13:15:43.614Z,34.00
2022-07-27T13:18:30.083Z,33.50
2022-07-27T13:21:17.039Z,32.70
2022-07-27T13:24:02.865Z,32.00
2022-07-27T13:26:49.578Z,32.40
2022-07-27T13:29:35.227Z,32.10
2022-07-27T13:32:21.228Z,32.60
2022-07-27T13:35:09.745Z,32.70
2022-07-27T13:37:56.934Z,32.20
2022-07-27T13:40:45.446Z,31.30
2022-07-27T13:43:32.347Z,31.70
2022-07-27T13:46:18.549Z,31.90
2022-07-27T13:49:04.511Z,31.80
2022-07-27T13:51:51.542Z,32.10
2022-07-27T13:54:46.792Z,31.90
2022-07-27T13:57:35.783Z,31.90
2022-07-27T14:00:21.583Z,32.00
2022-07-27T14:03:11.301Z,31.50
2022-07-27T14:05:57.140Z,31.50
2022-07-27T14:08:46.289Z,31.60
2022-07-27T14:11:36.419Z,31.70
2022-07-27T14:14:26.797Z,31.30
2022-07-27T14:17:13.470Z,31.20
2022-07-27T14:20:26.195Z,30.50
2022-07-27T14:23:12.008Z,31.50
2022-07-27T14:25:59.187Z,31.90
2022-07-27T14:28:45.058Z,31.70
2022-07-27T14:31:31.636Z,31.80
2022-07-27T14:34:17.181Z,31.40
2022-07-27T14:37:02.795Z,31.70
2022-07-27T14:39:50.803Z,31.50
2022-07-27T14:42:36.562Z,31.70
2022-07-27T14:45:22.432Z,31.60
2022-07-27T14:48:08.317Z,31.80
2022-07-27T14:50:56.691Z,32.00
2022-07-27T14:53:43.159Z,31.50
2022-07-27T14:56:28.983Z,32.00
2022-07-27T14:59:15.267Z,32.00
2022-07-27T15:02:01.622Z,32.10
2022-07-27T15:04:47.765Z,32.30
2022-07-27T15:07:35.572Z,32.00
2022-07-27T15:10:22.422Z,31.60
2022-07-27T15:13:08.184Z,31.50
2022-07-27T15:15:55.374Z,31.00
2022-07-27T15:18:41.131Z,31.00
2022-07-27T15:21:27.563Z,31.00
2022-07-27T15:24:13.711Z,31.30
2022-07-27T15:26:59.877Z,31.40
2022-07-27T15:29:45.833Z,31.50
2022-07-27T15:32:31.871Z,31.10
2022-07-27T15:35:20.346Z,31.60
2022-07-27T15:38:07.263Z,31.70
2022-07-27T15:40:55.953Z,31.40
2022-07-27T15:43:41.700Z,31.20
2022-07-27T15:46:28.101Z,31.50
2022-07-27T15:49:15.025Z,31.90
2022-07-27T15:52:03.125Z,31.60
2022-07-27T15:54:49.007Z,31.30
2022-07-27T15:57:36.834Z,31.50
2022-07-27T16:00:22.807Z,31.20
2022-07-27T16:03:12.126Z,31.50
2022-07-27T16:05:57.980Z,31.30
2022-07-27T16:08:44.608Z,31.60
2022-07-27T16:11:30.623Z,31.20
2022-07-27T16:14:16.100Z,31.30
2022-07-27T16:17:01.721Z,31.50
2022-07-27T16:19:47.746Z,31.20
2022-07-27T16:22:34.886Z,31.30
2022-07-27T16:25:40.188Z,31.20
2022-07-27T16:28:29.803Z,31.60
2022-07-27T16:31:20.803Z,31.70
2022-07-27T16:34:08.053Z,31.60
2022-07-27T16:36:57.116Z,31.90
2022-07-27T16:39:42.731Z,31.90
2022-07-27T16:42:29.718Z,31.60
2022-07-27T16:45:15.907Z,31.50
2022-07-27T16:48:03.549Z,31.10
2022-07-27T16:50:49.398Z,30.80
2022-07-27T16:53:45.802Z,31.30
2022-07-27T16:56:32.247Z,31.20
2022-07-27T16:59:18.168Z,31.20
2022-07-27T17:02:04.314Z,31.30
2022-07-27T17:04:51.242Z,31.10
2022-07-27T17:07:36.910Z,31.00
2022-07-27T17:10:27.050Z,31.20
2022-07-27T17:13:13.710Z,31.50
2022-07-27T17:16:01.085Z,31.20
2022-07-27T17:18:47.189Z,31.30
2022-07-27T17:21:32.805Z,31.00
2022-07-27T17:24:18.446Z,30.90
2022-07-27T17:27:04.509Z,30.90
2022-07-27T17:29:51.646Z,30.90
2022-07-27T17:32:38.074Z,30.90
2022-07-27T17:35:23.827Z,30.90
2022-07-27T17:38:09.484Z,30.70
2022-07-27T17:40:55.773Z,30.60
2022-07-27T17:43:42.030Z,30.60
2022-07-27T17:46:27.960Z,30.80
2022-07-27T17:49:14.140Z,30.70
2022-07-27T17:52:00.128Z,30.60
2022-07-27T17:54:47.895Z,30.60
2022-07-27T17:57:33.508Z,30.40
2022-07-27T18:00:19.894Z,30.40
2022-07-27T18:03:05.555Z,30.50
2022-07-27T18:05:51.324Z,30.70
2022-07-27T18:08:37.294Z,30.50
2022-07-27T18:11:23.272Z,30.20
2022-07-27T18:14:09.314Z,30.30
2022-07-27T18:16:57.065Z,30.20
2022-07-27T18:19:42.869Z,30.20
2022-07-27T18:22:28.508Z,30.10
2022-07-27T18:25:14.109Z,30.10
2022-07-27T18:28:00.062Z,30.00
2022-07-27T18:30:46.785Z,30.00
2022-07-27T18:33:36.581Z,29.90
2022-07-27T18:36:22.897Z,29.80
2022-07-27T18:39:10.664Z,29.80
2022-07-27T18:42:01.733Z,29.70
2022-07-27T18:44:47.261Z,29.70
2022-07-27T18:47:33.686Z,29.60
2022-07-27T18:50:19.420Z,29.60
2022-07-27T18:53:04.923Z,29.60
2022-07-27T18:55:55.622Z,29.60
2022-07-27T18:58:43.806Z,29.50
2022-07-27T19:01:29.843Z,29.50
2022-07-27T19:04:15.817Z,29.50
2022-07-27T19:07:02.636Z,29.50
2022-07-27T19:09:50.278Z,29.40
2022-07-27T19:12:35.882Z,29.30
2022-07-27T19:15:22.225Z,29.40
2022-07-27T19:18:08.533Z,29.30
2022-07-27T19:20:54.452Z,29.20
2022-07-27T19:23:40.041Z,29.00
2022-07-27T19:26:25.742Z,29.10
2022-07-27T19:29:13.352Z,29.10
2022-07-27T19:31:59.420Z,29.00
2022-07-27T19:34:44.993Z,29.00
2022-07-27T19:37:31.444Z,29.00
2022-07-27T19:40:43.592Z,29.00
2022-07-27T19:43:24.062Z,29.00
2022-07-27T19:46:10.240Z,28.80
2022-07-27T19:48:56.320Z,28.80
2022-07-27T19:51:42.433Z,28.50
2022-07-27T19:54:28.908Z,28.60
2022-07-27T19:57:14.821Z,28.70
2022-07-27T20:00:02.713Z,28.70
2022-07-27T20:02:50.637Z,28.70
2022-07-27T20:05:36.387Z,28.80
2022-07-27T20:08:22.288Z,28.90
2022-07-27T20:11:08.223Z,29.00
2022-07-27T20:13:54.103Z,29.10
2022-07-27T20:16:40.856Z,29.20
2022-07-27T20:19:26.835Z,29.40
2022-07-27T20:22:12.322Z,29.10
2022-07-27T20:24:58.400Z,29.10
2022-07-27T20:27:45.405Z,29.20
2022-07-27T20:30:31.349Z,29.10
2022-07-27T20:33:21.285Z,29.00
2022-07-27T20:36:07.754Z,28.90
2022-07-27T20:38:53.269Z,28.90
2022-07-27T20:41:38.773Z,28.90
2022-07-27T20:44:24.509Z,29.00
2022-07-27T20:47:12.212Z,29.30
2022-07-27T20:49:58.165Z,29.00
2022-07-27T20:52:44.075Z,29.90
2022-07-27T20:55:32.841Z,28.70
2022-07-27T20:58:18.550Z,28.90
2022-07-27T21:01:04.737Z,29.00
2022-07-27T21:03:50.309Z,29.20
2022-07-27T21:06:36.234Z,29.30
2022-07-27T21:09:22.164Z,29.40
2022-07-27T21:12:08.236Z,29.30
2022-07-27T21:14:54.621Z,29.00
2022-07-27T21:17:40.886Z,28.90
2022-07-27T21:20:27.611Z,28.80
2022-07-27T21:23:31.727Z,28.60
2022-07-27T21:26:20.467Z,28.60
2022-07-27T21:29:09.252Z,28.50
2022-07-27T21:31:55.325Z,28.50
2022-07-27T21:34:41.234Z,28.40
2022-07-27T21:37:26.930Z,28.60
2022-07-27T21:40:14.081Z,28.40
2022-07-27T21:43:01.017Z,28.30
2022-07-27T21:45:49.690Z,28.40
2022-07-27T21:48:37.482Z,28.30
2022-07-27T21:51:23.248Z,28.10
2022-07-27T21:54:09.093Z,28.00
2022-07-27T21:56:55.359Z,28.10
2022-07-27T21:59:41.257Z,28.10
2022-07-27T22:02:28.250Z,28.20
2022-07-27T22:05:14.232Z,29.50
2022-07-27T22:08:00.223Z,28.30
2022-07-27T22:10:46.003Z,28.10
2022-07-27T22:13:32.546Z,28.30
2022-07-27T22:16:18.605Z,27.90
2022-07-27T22:19:04.437Z,28.00
2022-07-27T22:21:50.257Z,28.00
2022-07-27T22:24:36.122Z,28.00
2022-07-27T22:27:22.093Z,27.80
2022-07-27T22:30:09.212Z,27.60
2022-07-27T22:32:54.943Z,27.50
2022-07-27T22:35:40.784Z,27.50
2022-07-27T22:38:27.880Z,27.20
2022-07-27T22:41:14.167Z,27.30
2022-07-27T22:44:01.359Z,27.60
2022-07-27T22:46:47.463Z,27.50
2022-07-27T22:49:35.151Z,27.80
2022-07-27T22:52:21.107Z,27.70
2022-07-27T22:55:07.462Z,27.80
2022-07-27T22:57:53.125Z,27.70
2022-07-27T23:00:39.039Z,27.70
2022-07-27T23:03:25.007Z,27.60
2022-07-27T23:06:10.835Z,27.50
2022-07-27T23:08:56.551Z,27.20
2022-07-27T23:11:44.051Z,27.20
2022-07-27T23:14:30.701Z,27.30
2022-07-27T23:17:16.534Z,27.60
2022-07-27T23:20:02.110Z,27.50
2022-07-27T23:22:49.453Z,27.60
2022-07-27T23:25:36.690Z,27.70
2022-07-27T23:28:22.400Z,28.00
2022-07-27T23:31:08.792Z,28.00
2022-07-27T23:33:54.606Z,28.10
2022-07-27T23:36:43.774Z,27.80
2022-07-27T23:39:29.534Z,27.90
2022-07-27T23:42:15.829Z,27.90
2022-07-27T23:45:02.184Z,27.70
2022-07-27T23:47:48.179Z,27.60
2022-07-27T23:50:37.105Z,27.10
2022-07-27T23:53:23.992Z,26.80
2022-07-27T23:56:09.399Z,26.30
2022-07-27T23:58:55.105Z,25.90
